Time;durP1;ratioP1;P1;durP2;ratioP2;P2;SDS_P1;SDS_P2;PMS_P1;PMS_P2;Temp;Humidity;BMP_temperature;BMP_pressure;BME280_temperature;BME280_humidity;BME280_pressure;Samples;Min_cycle;Max_cycle;Signal;HPM_P1;HPM_P2
2022/03/15 00:05:10;;;;;;;0.20;0.00;;;14.70;99.90;;;;;;20708537;28;20238;-82
2022/03/15 00:15:16;;;;;;;0.20;0.00;;;14.70;99.90;;;;;;20709258;28;20188;-81
2022/03/15 00:25:20;;;;;;;0.20;0.00;;;14.80;99.90;;;;;;20721728;28;20250;-82
2022/03/15 00:35:25;;;;;;;0.20;0.10;;;14.70;99.90;;;;;;20707139;28;20192;-82
2022/03/15 00:45:29;;;;;;;0.20;0.00;;;14.70;99.90;;;;;;20723167;28;20251;-82
2022/03/15 00:55:34;;;;;;;1.33;1.20;;;14.80;99.90;;;;;;20723510;28;20807;-81
2022/03/15 01:05:38;;;;;;;0.20;0.00;;;14.70;99.90;;;;;;20707315;28;20244;-83
2022/03/15 01:15:44;;;;;;;0.20;0.00;;;14.70;99.90;;;;;;20719369;28;20211;-81
2022/03/15 01:25:48;;;;;;;0.20;0.00;;;14.70;99.90;;;;;;20720549;28;20282;-68
2022/03/15 01:35:54;;;;;;;0.20;0.10;;;14.70;99.90;;;;;;20717258;28;20211;-67
2022/03/15 01:45:57;;;;;;;0.20;0.10;;;14.70;99.90;;;;;;20701628;28;20243;-68
2022/03/15 01:56:03;;;;;;;0.20;0.00;;;14.70;99.90;;;;;;20717446;28;20195;-68
2022/03/15 02:06:09;;;;;;;0.20;0.00;;;14.70;99.90;;;;;;20718938;28;20231;-68
2022/03/15 02:16:14;;;;;;;0.20;0.00;;;14.70;99.90;;;;;;20720216;28;20203;-69
2022/03/15 02:26:19;;;;;;;0.20;0.00;;;14.70;99.90;;;;;;20733873;28;20266;-68
2022/03/15 02:36:23;;;;;;;0.20;0.00;;;14.70;99.90;;;;;;20715016;28;20203;-68
2022/03/15 02:46:31;;;;;;;0.20;0.00;;;14.70;99.90;;;;;;20731495;28;20227;-81
2022/03/15 02:56:35;;;;;;;0.20;0.00;;;14.70;99.90;;;;;;20732170;28;20314;-80
2022/03/15 03:06:42;;;;;;;0.20;0.00;;;14.60;99.90;;;;;;20729694;28;20291;-83
2022/03/15 03:16:45;;;;;;;0.20;0.00;;;14.60;99.90;;;;;;20729927;28;20219;-80
2022/03/15 03:26:51;;;;;;;0.20;0.00;;;14.60;99.90;;;;;;20727155;28;20227;-79
2022/03/15 03:36:55;;;;;;;0.20;0.00;;;14.50;99.90;;;;;;20727680;28;20214;-67
2022/03/15 03:47:06;;;;;;;0.20;0.10;;;14.50;99.90;;;;;;20726988;28;20239;-67
2022/03/15 03:57:10;;;;;;;0.20;0.00;;;14.40;99.90;;;;;;20726198;28;20191;-67
2022/03/15 04:07:15;;;;;;;0.20;0.00;;;14.40;99.90;;;;;;20710028;28;20250;-66
2022/03/15 04:17:19;;;;;;;0.20;0.00;;;14.30;99.90;;;;;;20724098;28;20211;-82
2022/03/15 04:27:24;;;;;;;0.20;0.00;;;14.20;99.90;;;;;;20709996;28;20410;-81
2022/03/15 04:37:27;;;;;;;0.20;0.00;;;14.10;99.90;;;;;;20723723;28;20203;-81
2022/03/15 04:47:33;;;;;;;0.20;0.10;;;14.20;99.90;;;;;;20725179;28;20250;-79
2022/03/15 04:57:37;;;;;;;0.20;0.00;;;14.20;99.90;;;;;;20707120;28;20207;-79
2022/03/15 05:07:42;;;;;;;0.20;0.00;;;14.30;99.90;;;;;;20725465;28;20470;-80
2022/03/15 05:17:46;;;;;;;0.20;0.00;;;14.20;99.90;;;;;;20721279;28;20208;-81
2022/03/15 05:27:51;;;;;;;0.20;0.10;;;14.20;99.90;;;;;;20722678;28;20251;-82
2022/03/15 05:37:55;;;;;;;0.33;0.33;;;14.10;99.90;;;;;;20716229;28;20256;-81
2022/03/15 05:48:00;;;;;;;0.20;0.00;;;14.10;99.90;;;;;;20718246;28;20241;-82
2022/03/15 05:58:04;;;;;;;0.20;0.00;;;14.10;99.90;;;;;;20717637;28;20215;-81
2022/03/15 06:08:10;;;;;;;0.20;0.00;;;14.00;99.90;;;;;;20715399;28;20238;-68
2022/03/15 06:18:14;;;;;;;0.20;0.00;;;14.10;99.90;;;;;;20712741;28;20475;-68
2022/03/15 06:28:20;;;;;;;0.20;0.00;;;14.10;99.90;;;;;;20709649;28;20227;-69
2022/03/15 06:38:24;;;;;;;0.20;0.00;;;14.00;99.90;;;;;;20714265;28;20203;-79
2022/03/15 06:48:29;;;;;;;0.20;0.00;;;14.00;99.90;;;;;;20711786;28;20231;-80
2022/03/15 06:58:34;;;;;;;0.20;0.00;;;14.00;99.90;;;;;;20706091;28;20214;-80
2022/03/15 07:08:39;;;;;;;0.20;0.00;;;14.20;99.90;;;;;;20715621;28;20239;-79
2022/03/15 07:18:43;;;;;;;0.20;0.00;;;14.10;99.90;;;;;;20726053;28;20467;-83
2022/03/15 07:28:48;;;;;;;0.20;0.00;;;14.30;99.90;;;;;;20723316;28;20231;-82
2022/03/15 07:38:51;;;;;;;0.20;0.00;;;14.30;99.90;;;;;;20724699;28;20211;-81
2022/03/15 07:48:57;;;;;;;0.20;0.00;;;14.30;99.90;;;;;;20721440;28;20250;-81
2022/03/15 07:59:00;;;;;;;0.20;0.00;;;14.50;99.90;;;;;;20721897;28;20199;-80
2022/03/15 08:09:06;;;;;;;0.20;0.00;;;14.80;99.90;;;;;;20718956;28;20246;-81
2022/03/15 08:19:11;;;;;;;0.20;0.00;;;15.00;99.90;;;;;;20699991;28;20199;-79
2022/03/15 08:29:16;;;;;;;0.20;0.00;;;15.10;99.90;;;;;;20718922;28;20227;-75
2022/03/15 08:39:22;;;;;;;0.20;0.03;;;15.00;99.90;;;;;;20701949;28;20199;-74
2022/03/15 08:49:28;;;;;;;0.20;0.10;;;15.00;99.90;;;;;;20713538;28;20255;-76
2022/03/15 08:59:33;;;;;;;0.20;0.00;;;15.00;99.90;;;;;;20698182;28;20183;-74
2022/03/15 09:09:38;;;;;;;0.20;0.00;;;15.30;99.90;;;;;;20705114;28;20235;-69
2022/03/15 09:19:42;;;;;;;0.20;0.00;;;15.50;99.90;;;;;;20699127;28;20203;-69
2022/03/15 09:29:48;;;;;;;0.20;0.00;;;15.60;99.90;;;;;;20701751;28;20621;-68
2022/03/15 09:39:54;;;;;;;0.20;0.10;;;15.50;99.90;;;;;;20673017;28;20199;-68
2022/03/15 09:50:02;;;;;;;1.43;0.87;;;15.70;99.90;;;;;;20701612;28;20254;-77
2022/03/15 10:00:08;;;;;;;0.20;0.00;;;15.90;99.90;;;;;;20684300;28;20203;-77
2022/03/15 10:10:16;;;;;;;0.20;0.00;;;16.00;99.90;;;;;;20682964;28;20243;-72
2022/03/15 10:20:25;;;;;;;0.20;0.00;;;16.10;99.90;;;;;;20700845;28;20383;-69
2022/03/15 10:30:32;;;;;;;0.20;0.00;;;15.90;99.90;;;;;;20700904;28;20254;-69
2022/03/15 10:40:37;;;;;;;0.20;0.10;;;16.00;99.90;;;;;;20706055;28;20242;-69
2022/03/15 10:50:53;;;;;;;0.20;0.10;;;15.80;99.90;;;;;;20715644;28;20235;-69
2022/03/15 11:00:57;;;;;;;0.20;0.10;;;15.80;99.90;;;;;;20715970;28;20211;-70
2022/03/15 11:11:06;;;;;;;0.20;0.10;;;16.00;99.90;;;;;;20712903;28;20239;-70
2022/03/15 11:21:10;;;;;;;0.20;0.00;;;16.40;99.90;;;;;;20715971;28;20203;-69
2022/03/15 11:31:16;;;;;;;0.20;0.00;;;16.50;99.90;;;;;;20632791;28;20236;-70
2022/03/15 11:41:22;;;;;;;0.20;0.00;;;16.40;99.90;;;;;;20683653;28;20224;-69
2022/03/15 11:51:32;;;;;;;0.20;0.00;;;16.50;99.90;;;;;;20716744;28;20211;-70
2022/03/15 12:01:46;;;;;;;0.20;0.10;;;16.50;99.90;;;;;;20717221;28;20223;-67
2022/03/15 12:12:01;;;;;;;0.20;0.10;;;16.70;99.90;;;;;;20719552;28;20319;-76
2022/03/15 12:22:09;;;;;;;0.20;0.10;;;16.50;99.90;;;;;;20720873;28;20203;-74
2022/03/15 12:32:18;;;;;;;0.20;0.10;;;16.70;99.90;;;;;;20703115;28;20231;-74
2022/03/15 12:42:24;;;;;;;0.20;0.00;;;16.60;99.90;;;;;;20723005;28;20237;-77
2022/03/15 12:52:39;;;;;;;0.20;0.00;;;16.70;99.90;;;;;;20719765;28;20243;-67
2022/03/15 13:02:43;;;;;;;0.20;0.10;;;16.70;99.90;;;;;;20691670;28;20218;-67
2022/03/15 13:12:53;;;;;;;0.20;0.00;;;16.60;99.90;;;;;;20717385;28;20259;-66
2022/03/15 13:23:00;;;;;;;0.20;0.00;;;16.50;99.90;;;;;;20626769;28;20204;-67
2022/03/15 13:33:05;;;;;;;0.20;0.03;;;16.70;99.90;;;;;;20605509;28;20315;-68
2022/03/15 13:43:10;;;;;;;0.20;0.00;;;16.80;99.90;;;;;;20631438;28;20228;-67
2022/03/15 13:53:20;;;;;;;0.20;0.10;;;16.50;99.90;;;;;;20617015;28;20242;-67
2022/03/15 14:03:30;;;;;;;0.20;0.00;;;16.30;99.90;;;;;;20679418;28;20222;-67
2022/03/15 14:13:35;;;;;;;0.20;0.00;;;16.20;99.90;;;;;;20715437;28;20295;-67
2022/03/15 14:23:40;;;;;;;0.20;0.00;;;16.20;99.90;;;;;;20732127;28;20199;-77
2022/03/15 14:33:46;;;;;;;0.20;0.00;;;16.20;99.90;;;;;;20732323;28;20239;-77
2022/03/15 14:43:54;;;;;;;0.20;0.10;;;16.10;99.90;;;;;;20728845;28;20286;-66
2022/03/15 14:54:00;;;;;;;0.20;0.00;;;15.80;99.90;;;;;;20712752;28;20262;-79
2022/03/15 15:04:07;;;;;;;0.20;0.10;;;16.00;99.90;;;;;;20731652;28;20208;-74
2022/03/15 15:14:13;;;;;;;0.20;0.00;;;16.10;99.90;;;;;;20726521;28;20231;-78
2022/03/15 15:24:17;;;;;;;0.20;0.00;;;16.00;99.90;;;;;;20725626;28;20204;-75
2022/03/15 15:34:26;;;;;;;2.67;1.60;;;15.90;99.90;;;;;;20724276;28;20313;-78
2022/03/15 15:44:30;;;;;;;0.20;0.00;;;15.90;99.90;;;;;;20721778;28;20227;-80
2022/03/15 15:54:36;;;;;;;0.83;0.40;;;15.90;99.90;;;;;;20704594;28;20235;-77
2022/03/15 16:04:40;;;;;;;0.20;0.10;;;15.60;99.90;;;;;;20719592;28;20261;-79
2022/03/15 16:14:45;;;;;;;0.20;0.00;;;15.60;99.90;;;;;;20720205;28;20233;-79
2022/03/15 16:24:55;;;;;;;0.20;0.00;;;15.50;99.90;;;;;;20722949;28;20223;-76
2022/03/15 16:35:01;;;;;;;0.20;0.00;;;15.30;99.90;;;;;;20717709;28;20235;-67
2022/03/15 16:45:21;;;;;;;0.20;0.00;;;15.20;99.90;;;;;;20698560;28;20255;-68
2022/03/15 16:55:26;;;;;;;0.20;0.00;;;15.20;99.90;;;;;;20715639;28;20288;-67
2022/03/15 17:05:42;;;;;;;0.20;0.10;;;15.10;99.90;;;;;;20714657;28;20486;-67
2022/03/15 17:15:55;;;;;;;0.20;0.00;;;15.00;99.90;;;;;;20714569;28;20235;-67
2022/03/15 17:26:02;;;;;;;0.20;0.10;;;15.00;99.90;;;;;;20712659;28;20233;-68
2022/03/15 17:36:09;;;;;;;0.20;0.00;;;14.90;99.90;;;;;;20702793;28;20231;-66
2022/03/15 17:46:18;;;;;;;0.20;0.00;;;14.80;99.90;;;;;;20700899;28;20223;-67
2022/03/15 17:56:33;;;;;;;0.20;0.00;;;14.80;99.90;;;;;;20715036;28;21086;-70
2022/03/15 18:06:40;;;;;;;0.20;0.00;;;14.70;99.90;;;;;;20720037;28;20203;-74
2022/03/15 18:16:46;;;;;;;0.20;0.00;;;14.70;99.90;;;;;;20719042;28;20224;-73
2022/03/15 18:26:52;;;;;;;0.20;0.10;;;14.70;99.90;;;;;;20718627;28;20235;-77
2022/03/15 18:36:58;;;;;;;0.20;0.00;;;14.70;99.90;;;;;;20701479;28;20376;-76
2022/03/15 18:47:03;;;;;;;0.20;0.00;;;14.70;99.90;;;;;;20718929;28;20283;-66
2022/03/15 18:57:08;;;;;;;0.20;0.00;;;14.80;99.90;;;;;;20704410;28;20239;-76
2022/03/15 19:07:12;;;;;;;0.20;0.00;;;14.60;99.90;;;;;;20735029;28;20219;-75
2022/03/15 19:17:17;;;;;;;0.20;0.00;;;14.70;99.90;;;;;;20733527;28;20238;-78
2022/03/15 19:27:21;;;;;;;0.20;0.00;;;14.80;99.90;;;;;;20733382;28;20279;-68
2022/03/15 19:37:27;;;;;;;0.20;0.00;;;14.70;99.90;;;;;;20732114;28;20575;-78
2022/03/15 19:47:34;;;;;;;0.20;0.00;;;14.60;99.90;;;;;;20731024;28;20295;-80
2022/03/15 19:57:43;;;;;;;0.20;0.00;;;14.60;99.90;;;;;;20718901;28;20192;-77
2022/03/15 20:07:52;;;;;;;0.20;0.00;;;14.60;99.90;;;;;;20731617;28;20200;-66
2022/03/15 20:18:02;;;;;;;0.20;0.00;;;14.60;99.90;;;;;;20729741;28;20226;-68
2022/03/15 20:28:07;;;;;;;0.20;0.00;;;14.50;99.90;;;;;;20729038;28;20241;-67
2022/03/15 20:38:13;;;;;;;0.20;0.00;;;14.60;99.90;;;;;;20711040;28;20222;-67
2022/03/15 20:48:17;;;;;;;0.20;0.00;;;14.60;99.90;;;;;;20728309;28;20243;-69
2022/03/15 20:58:25;;;;;;;0.27;0.23;;;14.50;99.90;;;;;;20709718;28;20213;-70
2022/03/15 21:08:30;;;;;;;0.20;0.00;;;14.50;99.90;;;;;;20729282;28;20227;-80
2022/03/15 21:18:36;;;;;;;0.20;0.00;;;14.50;99.90;;;;;;20729938;28;20196;-79
2022/03/15 21:28:40;;;;;;;0.20;0.10;;;14.60;99.90;;;;;;20731249;28;20246;-71
2022/03/15 21:38:47;;;;;;;0.20;0.00;;;14.60;99.90;;;;;;20729619;28;20203;-80
2022/03/15 21:48:53;;;;;;;0.20;0.10;;;14.50;99.90;;;;;;20729680;28;20259;-82
2022/03/15 21:59:00;;;;;;;0.20;0.10;;;14.60;99.90;;;;;;20710904;28;20349;-78
2022/03/15 22:09:04;;;;;;;0.20;0.00;;;14.60;99.90;;;;;;20725363;28;20757;-78
2022/03/15 22:19:09;;;;;;;0.20;0.00;;;14.60;99.90;;;;;;20726810;28;20200;-67
2022/03/15 22:29:13;;;;;;;0.20;0.07;;;14.60;99.90;;;;;;20726114;28;20243;-67
2022/03/15 23:31:11;;;;;;;0.20;0.00;;;14.40;99.90;;;;;;20651191;28;20236;-79
2022/03/15 23:41:17;;;;;;;0.20;0.10;;;14.40;99.90;;;;;;20727000;28;20230;-78
2022/03/15 23:51:20;;;;;;;1.13;1.03;;;14.40;99.90;;;;;;20726471;28;20235;-68
